Ana Sayfa
METAR-TAF:

METAR-TAF

Havaalanları :

Moosonee, Ontario, Kanada

Enlem: 51-16N, Boylam: 080-39W, yükseklik: 10 m

Güncel hava durumu gözlemi

Rapor saat 23:00 UTC de 57 dakika önce yapıldı.
Rüzgar güney/güneybatıdan 3 kt
Sıcaklık -24°C
Nem 83%
Basınç 1028 hPa
Görüş mesafesi: 14.5 km
Açık gökyüzü

METAR: CYMO 122300Z AUTO 20003KT 9SM CLR M24/M26 A3037 RMK SLP286

Saat: 18:57 (23:57 UTC)

Tahmin

Rapor saat 23:38 UTC de 19 dakika önce yapıldı.
Ayın 13'si saat 00 UTC'den ayın 13'si saat 12 UTC'ye kadar geçerli Tahmin
Rüzgar güney/güneybatıdan 5 kt
Görüş mesafesi: 10 km
Açık gökyüzü
Dönüşüyor
ayın 13'si saat 10 UTC'den ayın 13'si saat 12 UTC'ye kadar
Rüzgar kuzey/kuzeybatıdan 5 kt

TAF: CYMO 122338Z 1300/1312 20005KT P6SM SKC BECMG 1310/1312 33005KT RMK FCST BASED ON AUTO OBS. NXT FCST BY 130600Z

4.000'den fazla havaalanı için hava durumu gözlemleri ve tahminleri (METAR ve TAF raporları).

Kullanılabilir istasyonlar harita üzerinde sarı ve kırmızı noktalarla gösterilir.

İstasyonun adını görmek için fareyi noktanın üzerinde gezdirin.

Sonrasında hava gözlem ve tahminlerini görmek için tıklayın.

Haritayı değiştirmek için: yaklaştırmak için siyah artı işaretli yeşil düğmeye ve uzaklaştırmak için de eksi işaretli düğmeye hızla tıklayın; bitişik haritalar için yeşil okları kullanın.


METAR-TAF: